Time;durP1;ratioP1;P1;durP2;ratioP2;P2;SDS_P1;SDS_P2;PMS_P1;PMS_P2;Temp;Humidity;BMP_temperature;BMP_pressure;BME280_temperature;BME280_humidity;BME280_pressure;Samples;Min_cycle;Max_cycle;Signal;HPM_P1;HPM_P2
2022/06/05 00:01:56;;;;;;;49.83;13.70;;;;;;;;;;5040369;28;20258;-51
2022/06/05 00:04:27;;;;;;;53.00;16.23;;;;;;;;;;5044667;28;20707;-51
2022/06/05 00:07:02;;;;;;;65.80;17.40;;;;;;;;;;5042778;28;20215;-50
2022/06/05 00:09:33;;;;;;;40.20;11.77;;;;;;;;;;5042269;28;20672;-51
2022/06/05 00:12:04;;;;;;;55.13;15.55;;;;;;;;;;5041035;28;20651;-51
2022/06/05 00:14:32;;;;;;;47.60;13.93;;;;;;;;;;5035697;28;20211;-51
2022/06/05 00:17:02;;;;;;;54.17;15.82;;;;;;;;;;5041720;28;20224;-51
2022/06/05 00:19:35;;;;;;;45.88;12.75;;;;;;;;;;5045367;28;20216;-51
2022/06/05 00:22:06;;;;;;;49.72;13.90;;;;;;;;;;5019342;28;20247;-51
2022/06/05 00:24:40;;;;;;;54.25;15.30;;;;;;;;;;5045854;28;20220;-51
2022/06/05 00:27:25;;;;;;;22.05;7.55;;;;;;;;;;5019375;28;20214;-51
2022/06/05 00:30:09;;;;;;;56.33;15.38;;;;;;;;;;5042622;28;20248;-51
2022/06/05 00:32:45;;;;;;;54.55;15.18;;;;;;;;;;5046672;28;20667;-51
2022/06/05 00:35:18;;;;;;;49.85;14.15;;;;;;;;;;5039870;28;20294;-51
2022/06/05 00:38:07;;;;;;;34.50;10.75;;;;;;;;;;5042116;28;20274;-51
2022/06/05 00:40:39;;;;;;;59.22;17.13;;;;;;;;;;5044054;28;20302;-51
2022/06/05 00:43:13;;;;;;;61.25;18.85;;;;;;;;;;5046053;28;20223;-50
2022/06/05 00:45:44;;;;;;;49.65;14.23;;;;;;;;;;5043652;28;20744;-51
2022/06/05 00:48:16;;;;;;;43.35;12.07;;;;;;;;;;5044949;28;20298;-51
2022/06/05 00:50:48;;;;;;;76.03;18.83;;;;;;;;;;5043907;28;20214;-51
2022/06/05 00:53:14;;;;;;;76.75;18.10;;;;;;;;;;5041865;28;20263;-51
2022/06/05 00:55:55;;;;;;;51.17;12.77;;;;;;;;;;5040329;28;20330;-51
2022/06/05 00:58:28;;;;;;;43.78;11.15;;;;;;;;;;5047265;28;20298;-51
2022/06/05 01:01:02;;;;;;;68.13;16.30;;;;;;;;;;5041464;28;20294;-50
2022/06/05 01:03:36;;;;;;;67.70;15.93;;;;;;;;;;5047980;28;20222;-51
2022/06/05 01:06:09;;;;;;;44.05;10.13;;;;;;;;;;5038727;28;20219;-51
2022/06/05 01:08:35;;;;;;;72.53;17.38;;;;;;;;;;5045882;28;20199;-51
2022/06/05 01:11:06;;;;;;;79.18;18.55;;;;;;;;;;5042791;28;20660;-51
2022/06/05 01:13:46;;;;;;;74.20;17.48;;;;;;;;;;5041847;28;20569;-51
2022/06/05 01:16:12;;;;;;;55.65;13.02;;;;;;;;;;5041929;28;20303;-51
2022/06/05 01:18:46;;;;;;;18.83;5.43;;;;;;;;;;5041235;28;20478;-51
2022/06/05 01:21:32;;;;;;;67.93;15.27;;;;;;;;;;5039953;28;20568;-51
2022/06/05 01:24:09;;;;;;;52.00;11.67;;;;;;;;;;5041069;28;20319;-51
2022/06/05 01:26:44;;;;;;;63.97;13.88;;;;;;;;;;5047385;28;20241;-51
2022/06/05 01:29:38;;;;;;;51.75;11.68;;;;;;;;;;5046160;28;20539;-51
2022/06/05 01:32:15;;;;;;;87.05;18.27;;;;;;;;;;5045727;28;20298;-51
2022/06/05 01:34:53;;;;;;;46.75;10.75;;;;;;;;;;5043624;28;20709;-51
2022/06/05 01:37:36;;;;;;;56.60;12.20;;;;;;;;;;5042284;28;20710;-51
2022/06/05 01:40:07;;;;;;;48.40;10.57;;;;;;;;;;5042801;28;20250;-51
2022/06/05 01:42:41;;;;;;;66.45;14.18;;;;;;;;;;5041560;28;20215;-51
2022/06/05 01:45:17;;;;;;;74.03;15.40;;;;;;;;;;5040970;28;20238;-51
2022/06/05 01:47:47;;;;;;;50.55;11.25;;;;;;;;;;5050422;28;20214;-51
2022/06/05 01:50:19;;;;;;;72.50;15.23;;;;;;;;;;5045301;28;20178;-51
2022/06/05 01:52:50;;;;;;;63.83;22.73;;;;;;;;;;5040741;28;20588;-50
2022/06/05 01:55:21;;;;;;;98.47;65.25;;;;;;;;;;5042170;28;20216;-51
2022/06/05 01:57:50;;;;;;;75.22;24.80;;;;;;;;;;5040923;28;21005;-51
2022/06/05 02:00:20;;;;;;;43.50;7.70;;;;;;;;;;5039502;28;20317;-51
2022/06/05 02:02:59;;;;;;;54.38;9.88;;;;;;;;;;5043450;28;20217;-50
2022/06/05 02:05:31;;;;;;;40.38;7.18;;;;;;;;;;5041286;28;20671;-51
2022/06/05 02:08:05;;;;;;;44.55;7.65;;;;;;;;;;5033399;28;20277;-51
2022/06/05 02:10:36;;;;;;;38.35;6.68;;;;;;;;;;5024146;28;20522;-51
2022/06/05 02:13:04;;;;;;;47.80;8.10;;;;;;;;;;5039039;28;20216;-51
2022/06/05 02:15:33;;;;;;;48.78;8.32;;;;;;;;;;5040725;28;20212;-51
2022/06/05 02:18:04;;;;;;;54.58;9.18;;;;;;;;;;5039494;28;20220;-51
2022/06/05 02:20:32;;;;;;;35.73;6.20;;;;;;;;;;5046420;28;20188;-51
2022/06/05 02:23:01;;;;;;;60.17;10.05;;;;;;;;;;5043209;28;20211;-50
2022/06/05 02:25:30;;;;;;;46.03;7.90;;;;;;;;;;5047684;28;20575;-51
2022/06/05 02:28:00;;;;;;;34.93;6.10;;;;;;;;;;5043443;28;20230;-51
2022/06/05 02:30:31;;;;;;;29.35;5.10;;;;;;;;;;5047850;28;20221;-50
2022/06/05 02:33:32;;;;;;;45.70;8.00;;;;;;;;;;5020659;28;20215;-51
2022/06/05 02:36:20;;;;;;;33.90;5.90;;;;;;;;;;5001649;28;20222;-51
2022/06/05 02:39:02;;;;;;;30.65;5.90;;;;;;;;;;5047653;28;20195;-51
2022/06/05 02:41:32;;;;;;;42.67;7.43;;;;;;;;;;5043565;28;20184;-51
2022/06/05 02:44:34;;;;;;;59.63;9.97;;;;;;;;;;5039440;28;20285;-51
2022/06/05 02:47:21;;;;;;;51.43;8.63;;;;;;;;;;4980183;28;20207;-51
2022/06/05 02:50:01;;;;;;;41.53;7.07;;;;;;;;;;5040565;28;20714;-50
2022/06/05 02:52:32;;;;;;;58.13;9.77;;;;;;;;;;5043491;28;21059;-51
2022/06/05 02:55:11;;;;;;;32.40;5.60;;;;;;;;;;5041867;28;20222;-50
2022/06/05 02:57:39;;;;;;;51.10;8.90;;;;;;;;;;5043745;28;20214;-50
2022/06/05 03:00:09;;;;;;;47.33;8.07;;;;;;;;;;5043937;28;20222;-51
2022/06/05 03:05:24;;;;;;;49.92;8.60;;;;;;;;;;5039543;28;20687;-51
2022/06/05 03:07:52;;;;;;;42.20;7.13;;;;;;;;;;5039107;28;20215;-51
2022/06/05 03:10:21;;;;;;;44.00;7.33;;;;;;;;;;5028977;28;20215;-51
2022/06/05 03:12:49;;;;;;;51.70;8.73;;;;;;;;;;5039131;28;20653;-51
2022/06/05 03:15:18;;;;;;;49.47;8.43;;;;;;;;;;5038938;28;20212;-51
2022/06/05 03:17:47;;;;;;;39.77;7.23;;;;;;;;;;5040321;28;20227;-51
2022/06/05 03:20:16;;;;;;;71.25;11.57;;;;;;;;;;5041612;28;20172;-51
2022/06/05 03:22:44;;;;;;;50.22;8.50;;;;;;;;;;5043265;28;20214;-51
2022/06/05 03:25:17;;;;;;;40.33;6.93;;;;;;;;;;5036858;28;20629;-51
2022/06/05 03:27:46;;;;;;;36.73;6.37;;;;;;;;;;5036187;28;20649;-50
2022/06/05 03:30:15;;;;;;;46.23;7.73;;;;;;;;;;5043212;28;20220;-51
2022/06/05 03:32:44;;;;;;;49.30;8.47;;;;;;;;;;5044847;28;20657;-51
2022/06/05 03:35:12;;;;;;;43.10;7.20;;;;;;;;;;5039400;28;20432;-51
2022/06/05 03:37:41;;;;;;;34.65;6.00;;;;;;;;;;5040230;28;20231;-51
2022/06/05 03:40:10;;;;;;;37.23;6.37;;;;;;;;;;5043358;28;20214;-50
2022/06/05 03:42:38;;;;;;;30.30;5.13;;;;;;;;;;5022522;28;20252;-50
2022/06/05 03:45:06;;;;;;;58.33;9.63;;;;;;;;;;5042792;28;20219;-51
2022/06/05 03:47:35;;;;;;;47.57;7.97;;;;;;;;;;5044865;28;20204;-51
2022/06/05 03:50:03;;;;;;;36.57;6.20;;;;;;;;;;5040637;28;20546;-51
2022/06/05 03:52:31;;;;;;;45.50;7.60;;;;;;;;;;5044834;28;20207;-51
2022/06/05 03:54:59;;;;;;;47.75;7.85;;;;;;;;;;5040847;28;20249;-50
2022/06/05 03:57:28;;;;;;;71.87;11.53;;;;;;;;;;5043823;28;20238;-51
2022/06/05 03:59:54;;;;;;;43.70;7.47;;;;;;;;;;5041183;28;20211;-51
2022/06/05 04:02:20;;;;;;;45.83;7.57;;;;;;;;;;5039678;28;20182;-51
2022/06/05 04:04:46;;;;;;;57.10;9.43;;;;;;;;;;5038675;28;20684;-51
2022/06/05 04:07:12;;;;;;;60.13;9.82;;;;;;;;;;5045432;28;20622;-51
2022/06/05 04:09:38;;;;;;;43.40;7.30;;;;;;;;;;5037061;28;20216;-51
2022/06/05 04:12:04;;;;;;;51.58;8.52;;;;;;;;;;5040328;28;20219;-51
2022/06/05 04:14:30;;;;;;;45.63;7.60;;;;;;;;;;5042006;28;20191;-51
2022/06/05 04:16:56;;;;;;;41.17;6.80;;;;;;;;;;5044270;28;20697;-50
2022/06/05 04:19:22;;;;;;;47.63;7.90;;;;;;;;;;5042286;28;20207;-50
2022/06/05 04:21:48;;;;;;;47.55;7.85;;;;;;;;;;5047701;28;20219;-51
2022/06/05 04:24:15;;;;;;;53.95;8.95;;;;;;;;;;5046878;28;20235;-51
2022/06/05 04:26:42;;;;;;;38.83;6.87;;;;;;;;;;5045183;28;20562;-51
2022/06/05 04:29:08;;;;;;;50.10;8.47;;;;;;;;;;5044427;28;20275;-51
2022/06/05 04:31:38;;;;;;;39.40;6.50;;;;;;;;;;5049597;28;20215;-51
2022/06/05 04:34:05;;;;;;;40.17;6.87;;;;;;;;;;5047090;28;20672;-51
2022/06/05 04:36:32;;;;;;;19.15;3.50;;;;;;;;;;5043315;28;20675;-51
2022/06/05 04:38:58;;;;;;;39.47;6.53;;;;;;;;;;5039568;28;20235;-51
2022/06/05 04:41:24;;;;;;;52.20;8.57;;;;;;;;;;5046137;28;20656;-51
2022/06/05 04:43:51;;;;;;;47.95;8.00;;;;;;;;;;5043318;28;20216;-51
2022/06/05 04:46:18;;;;;;;34.20;6.05;;;;;;;;;;5041235;28;21647;-51
2022/06/05 04:48:44;;;;;;;41.58;7.15;;;;;;;;;;5045893;28;20219;-50
2022/06/05 04:51:12;;;;;;;47.42;8.13;;;;;;;;;;5043309;28;20218;-50
2022/06/05 04:53:39;;;;;;;58.63;10.07;;;;;;;;;;5050002;28;20244;-51
2022/06/05 04:56:06;;;;;;;35.67;6.20;;;;;;;;;;5035945;28;20188;-51
2022/06/05 04:58:32;;;;;;;38.42;6.65;;;;;;;;;;5046588;28;20219;-51
2022/06/05 05:00:58;;;;;;;50.70;8.57;;;;;;;;;;5042002;28;20801;-51
2022/06/05 05:03:24;;;;;;;42.80;7.37;;;;;;;;;;5042371;28;20292;-51
2022/06/05 05:05:50;;;;;;;43.83;7.93;;;;;;;;;;5048911;28;20746;-51
2022/06/05 05:08:16;;;;;;;20.38;3.88;;;;;;;;;;5049777;28;20204;-51
2022/06/05 05:10:42;;;;;;;43.33;7.50;;;;;;;;;;5044603;28;20219;-51
2022/06/05 05:13:08;;;;;;;48.08;8.18;;;;;;;;;;5042703;28;20707;-51
2022/06/05 05:15:34;;;;;;;54.80;9.48;;;;;;;;;;5042677;28;20219;-51
2022/06/05 05:18:00;;;;;;;43.03;7.55;;;;;;;;;;5043203;28;20223;-51
2022/06/05 05:20:26;;;;;;;39.47;6.95;;;;;;;;;;5045427;28;20183;-51
2022/06/05 05:22:52;;;;;;;27.92;5.13;;;;;;;;;;5040426;28;20216;-51
2022/06/05 05:25:18;;;;;;;43.47;7.53;;;;;;;;;;5044078;28;20733;-51
2022/06/05 05:27:44;;;;;;;53.30;9.20;;;;;;;;;;5041483;28;20638;-51
2022/06/05 05:30:11;;;;;;;49.63;8.52;;;;;;;;;;5047798;28;20211;-51
2022/06/05 05:32:38;;;;;;;13.55;3.17;;;;;;;;;;5044829;28;20180;-51
2022/06/05 05:35:04;;;;;;;44.35;7.50;;;;;;;;;;5048494;28;20176;-51
2022/06/05 05:37:30;;;;;;;52.28;8.88;;;;;;;;;;5045592;28;20239;-51
2022/06/05 05:42:40;;;;;;;44.70;7.72;;;;;;;;;;5040337;28;20226;-51
2022/06/05 05:45:07;;;;;;;46.78;8.13;;;;;;;;;;5038586;28;20579;-51
2022/06/05 05:47:33;;;;;;;48.25;8.48;;;;;;;;;;5048246;28;20212;-51
2022/06/05 05:50:00;;;;;;;39.65;6.75;;;;;;;;;;5047358;28;20191;-52
2022/06/05 05:52:26;;;;;;;35.60;6.15;;;;;;;;;;5051950;28;20226;-52
2022/06/05 05:54:52;;;;;;;19.23;3.67;;;;;;;;;;5052023;28;20298;-52
2022/06/05 05:57:19;;;;;;;46.25;7.93;;;;;;;;;;5051541;28;20302;-52
2022/06/05 05:59:45;;;;;;;30.02;5.55;;;;;;;;;;5052376;28;20203;-51
2022/06/05 06:02:14;;;;;;;27.83;5.07;;;;;;;;;;5052333;28;20179;-52
2022/06/05 06:04:41;;;;;;;25.88;4.75;;;;;;;;;;5051952;28;20691;-51
2022/06/05 06:07:07;;;;;;;43.03;7.18;;;;;;;;;;5051367;28;20277;-52
2022/06/05 06:09:33;;;;;;;32.00;5.75;;;;;;;;;;5051713;28;20587;-52
2022/06/05 06:11:59;;;;;;;47.38;8.18;;;;;;;;;;5049677;28;20215;-52
2022/06/05 06:14:25;;;;;;;30.92;5.60;;;;;;;;;;5047278;28;20175;-52
2022/06/05 06:16:51;;;;;;;40.88;7.18;;;;;;;;;;5046638;28;20218;-53
2022/06/05 06:19:17;;;;;;;33.47;6.05;;;;;;;;;;5057233;28;20735;-52
2022/06/05 06:21:43;;;;;;;34.58;6.25;;;;;;;;;;5050610;28;20302;-52
2022/06/05 06:24:09;;;;;;;43.20;7.75;;;;;;;;;;5049628;28;20260;-52
2022/06/05 06:26:35;;;;;;;34.33;6.32;;;;;;;;;;5051089;28;20200;-52
2022/06/05 06:29:01;;;;;;;39.92;7.13;;;;;;;;;;5051800;28;20567;-52
2022/06/05 06:31:27;;;;;;;29.88;5.45;;;;;;;;;;5048437;28;20212;-52
2022/06/05 06:33:53;;;;;;;19.45;3.85;;;;;;;;;;5042040;28;20220;-52
2022/06/05 06:36:19;;;;;;;26.88;4.88;;;;;;;;;;5025424;28;20683;-52
2022/06/05 06:38:45;;;;;;;32.00;6.38;;;;;;;;;;5046152;28;20202;-52
2022/06/05 06:41:13;;;;;;;35.10;6.38;;;;;;;;;;5029675;28;20176;-52
2022/06/05 06:43:40;;;;;;;27.13;5.13;;;;;;;;;;5043184;28;20226;-52
2022/06/05 06:46:06;;;;;;;25.33;4.78;;;;;;;;;;5044148;28;20583;-52
2022/06/05 06:48:32;;;;;;;55.28;10.15;;;;;;;;;;5045160;28;20242;-51
2022/06/05 06:50:58;;;;;;;39.03;6.78;;;;;;;;;;5035446;28;20211;-52
2022/06/05 06:53:26;;;;;;;21.73;4.30;;;;;;;;;;5043910;28;20254;-52
2022/06/05 06:55:52;;;;;;;50.60;8.98;;;;;;;;;;5044258;28;20219;-52
2022/06/05 06:58:18;;;;;;;34.75;6.40;;;;;;;;;;5045054;28;20238;-52
2022/06/05 07:00:44;;;;;;;20.88;4.32;;;;;;;;;;5045839;28;20253;-52
2022/06/05 07:03:10;;;;;;;35.03;6.80;;;;;;;;;;5042451;28;20219;-52
2022/06/05 07:05:37;;;;;;;33.17;6.50;;;;;;;;;;5050967;28;20638;-51
2022/06/05 07:08:03;;;;;;;34.25;6.47;;;;;;;;;;5046145;28;20658;-51
2022/06/05 07:10:29;;;;;;;30.25;5.75;;;;;;;;;;5051597;28;20226;-52
2022/06/05 07:12:55;;;;;;;26.13;4.80;;;;;;;;;;5044740;28;20684;-52
2022/06/05 07:15:21;;;;;;;31.33;5.80;;;;;;;;;;5048370;28;20218;-52
2022/06/05 07:17:47;;;;;;;34.47;6.80;;;;;;;;;;5035305;28;20862;-51
2022/06/05 07:20:14;;;;;;;53.72;9.68;;;;;;;;;;5041317;28;20181;-52
2022/06/05 07:22:39;;;;;;;29.25;5.57;;;;;;;;;;5028486;28;20234;-53
2022/06/05 07:25:06;;;;;;;80.10;13.38;;;;;;;;;;5033577;28;20222;-53
2022/06/05 07:27:32;;;;;;;23.52;4.55;;;;;;;;;;5045487;28;20258;-53
2022/06/05 07:29:58;;;;;;;34.92;6.70;;;;;;;;;;5050205;28;20211;-53
2022/06/05 07:32:24;;;;;;;32.22;6.20;;;;;;;;;;5050305;28;20207;-53
2022/06/05 07:34:50;;;;;;;80.00;14.25;;;;;;;;;;5033079;28;20207;-50
2022/06/05 07:37:16;;;;;;;96.75;17.38;;;;;;;;;;5024277;28;20208;-52
2022/06/05 07:39:43;;;;;;;75.30;13.50;;;;;;;;;;5018133;28;20219;-52
2022/06/05 07:42:09;;;;;;;158.63;27.08;;;;;;;;;;5017984;28;20219;-51
2022/06/05 07:44:36;;;;;;;65.43;11.90;;;;;;;;;;5027123;28;20203;-52
2022/06/05 07:47:06;;;;;;;96.50;16.83;;;;;;;;;;5018759;28;20191;-51
2022/06/05 07:49:32;;;;;;;138.43;22.88;;;;;;;;;;5016740;28;20212;-51
2022/06/05 07:54:43;;;;;;;37.60;6.93;;;;;;;;;;5038374;28;20222;-52
2022/06/05 07:57:12;;;;;;;29.70;5.63;;;;;;;;;;5037055;28;20579;-52
2022/06/05 07:59:39;;;;;;;32.65;6.53;;;;;;;;;;5051874;28;20171;-52
2022/06/05 08:02:08;;;;;;;36.15;6.78;;;;;;;;;;5052223;28;20207;-52
2022/06/05 08:04:35;;;;;;;28.23;5.30;;;;;;;;;;5053381;28;20210;-52
2022/06/05 08:07:02;;;;;;;41.53;7.82;;;;;;;;;;5053255;28;20231;-52
2022/06/05 08:09:29;;;;;;;23.55;4.63;;;;;;;;;;5041065;28;20234;-52
2022/06/05 08:11:55;;;;;;;35.28;6.75;;;;;;;;;;5053568;28;20223;-52
2022/06/05 08:14:21;;;;;;;19.55;3.88;;;;;;;;;;5060732;28;20175;-52
2022/06/05 08:16:47;;;;;;;30.77;6.07;;;;;;;;;;5067988;28;20199;-52
2022/06/05 08:19:14;;;;;;;36.28;7.05;;;;;;;;;;5053390;28;20575;-52
2022/06/05 08:21:41;;;;;;;1.77;1.00;;;;;;;;;;5053129;28;20211;-52
2022/06/05 08:24:07;;;;;;;37.05;7.28;;;;;;;;;;5051291;28;20219;-52
2022/06/05 08:26:33;;;;;;;41.22;8.00;;;;;;;;;;5050184;28;20573;-52
2022/06/05 08:28:59;;;;;;;23.60;4.68;;;;;;;;;;5054154;28;20218;-52
2022/06/05 08:31:25;;;;;;;2.45;1.10;;;;;;;;;;5053739;28;20618;-53
2022/06/05 08:33:51;;;;;;;32.53;6.45;;;;;;;;;;5053082;28;20218;-52
2022/06/05 08:36:17;;;;;;;30.77;6.03;;;;;;;;;;5052010;28;20294;-53
2022/06/05 08:41:28;;;;;;;33.10;6.38;;;;;;;;;;5033964;28;20671;-53
2022/06/05 08:43:57;;;;;;;39.95;7.95;;;;;;;;;;5033247;28;20204;-53
2022/06/05 08:46:27;;;;;;;34.78;6.80;;;;;;;;;;5033401;28;20220;-53
2022/06/05 08:48:56;;;;;;;27.70;5.53;;;;;;;;;;5033025;28;20350;-53
2022/06/05 08:51:26;;;;;;;37.10;7.15;;;;;;;;;;5032508;28;20266;-53
2022/06/05 08:53:54;;;;;;;33.53;6.75;;;;;;;;;;5033139;28;20204;-53
2022/06/05 08:56:25;;;;;;;33.85;6.75;;;;;;;;;;5033368;28;20176;-52
2022/06/05 08:58:54;;;;;;;28.10;5.93;;;;;;;;;;5031925;28;20224;-53
2022/06/05 09:01:30;;;;;;;146.32;25.15;;;;;;;;;;5050211;28;20645;-52
2022/06/05 09:04:04;;;;;;;33.10;6.85;;;;;;;;;;5052570;28;20219;-53
2022/06/05 09:06:34;;;;;;;23.50;5.18;;;;;;;;;;5035232;28;20287;-53
2022/06/05 09:09:05;;;;;;;38.15;7.85;;;;;;;;;;5052759;28;20622;-53
2022/06/05 09:11:33;;;;;;;2.70;1.23;;;;;;;;;;5053499;28;20183;-53
2022/06/05 09:14:08;;;;;;;20.27;4.57;;;;;;;;;;5053456;28;20211;-53
2022/06/05 09:16:37;;;;;;;25.58;5.82;;;;;;;;;;5053091;28;20309;-53
2022/06/05 09:19:04;;;;;;;32.13;6.95;;;;;;;;;;5052947;28;20220;-52
2022/06/05 09:21:32;;;;;;;21.15;4.82;;;;;;;;;;5053070;28;20616;-53
2022/06/05 09:24:02;;;;;;;23.67;5.25;;;;;;;;;;5053262;28;20203;-53
2022/06/05 09:26:44;;;;;;;23.73;5.47;;;;;;;;;;5053356;28;20560;-53
2022/06/05 09:29:10;;;;;;;23.23;5.70;;;;;;;;;;5052999;28;20211;-53
2022/06/05 09:31:36;;;;;;;23.85;5.75;;;;;;;;;;5052885;28;20208;-53
2022/06/05 09:34:05;;;;;;;14.73;4.05;;;;;;;;;;5052754;28;20223;-53
2022/06/05 09:36:32;;;;;;;23.40;5.95;;;;;;;;;;5052849;28;20269;-53
2022/06/05 09:39:02;;;;;;;22.63;5.53;;;;;;;;;;5052528;28;20308;-53
2022/06/05 09:41:33;;;;;;;23.85;5.63;;;;;;;;;;5053372;28;20172;-53
2022/06/05 09:44:14;;;;;;;20.77;5.18;;;;;;;;;;5052686;28;20195;-52
2022/06/05 09:46:41;;;;;;;25.77;6.22;;;;;;;;;;5052608;28;20223;-53
2022/06/05 09:49:14;;;;;;;7.72;2.47;;;;;;;;;;5052475;28;20215;-53
2022/06/05 09:51:42;;;;;;;5.72;2.17;;;;;;;;;;5052612;28;20239;-53
2022/06/05 09:54:27;;;;;;;31.77;7.38;;;;;;;;;;5052403;28;20561;-53
2022/06/05 10:00:15;;;;;;;28.58;7.05;;;;;;;;;;5052589;28;20296;-53
2022/06/05 10:02:42;;;;;;;20.15;5.57;;;;;;;;;;5052416;28;20148;-53
2022/06/05 10:05:14;;;;;;;48.60;11.45;;;;;;;;;;5052770;28;20428;-53
2022/06/05 10:07:45;;;;;;;26.02;6.78;;;;;;;;;;5051992;28;20220;-53
2022/06/05 10:10:19;;;;;;;25.98;6.80;;;;;;;;;;5052395;28;20579;-53
2022/06/05 10:13:05;;;;;;;31.02;7.75;;;;;;;;;;5050890;28;20223;-53
2022/06/05 10:15:35;;;;;;;23.60;6.45;;;;;;;;;;5011607;28;20269;-53
2022/06/05 10:18:04;;;;;;;21.48;5.68;;;;;;;;;;5052018;28;20221;-53
2022/06/05 10:20:37;;;;;;;17.98;5.20;;;;;;;;;;5052332;28;20229;-53
2022/06/05 10:23:22;;;;;;;23.85;6.47;;;;;;;;;;5034071;28;20214;-53
2022/06/05 10:25:52;;;;;;;24.70;6.75;;;;;;;;;;5051979;28;20223;-53
2022/06/05 10:28:20;;;;;;;37.10;9.13;;;;;;;;;;5051385;28;20250;-53
2022/06/05 10:30:52;;;;;;;33.45;8.82;;;;;;;;;;5051754;28;20250;-53
2022/06/05 10:33:18;;;;;;;36.22;9.25;;;;;;;;;;5051596;28;20219;-53
2022/06/05 10:35:51;;;;;;;7.35;3.70;;;;;;;;;;5051661;28;20168;-53
2022/06/05 10:38:36;;;;;;;28.88;7.95;;;;;;;;;;5051966;28;20233;-53
2022/06/05 10:41:05;;;;;;;42.50;11.30;;;;;;;;;;5050933;28;20196;-53
2022/06/05 10:43:32;;;;;;;18.92;6.00;;;;;;;;;;5050673;28;20215;-53
2022/06/05 10:46:17;;;;;;;35.80;9.93;;;;;;;;;;5050678;28;20319;-52
2022/06/05 10:48:47;;;;;;;360.73;267.70;;;;;;;;;;5050030;28;20403;-54
2022/06/05 10:51:16;;;;;;;289.73;244.88;;;;;;;;;;5050549;28;20244;-53
2022/06/05 10:53:42;;;;;;;289.65;237.70;;;;;;;;;;5050845;28;20230;-53
2022/06/05 10:56:38;;;;;;;314.27;252.90;;;;;;;;;;5051415;28;20632;-53
2022/06/05 10:59:07;;;;;;;310.85;235.52;;;;;;;;;;5033341;28;20269;-52
2022/06/05 11:01:44;;;;;;;337.60;254.40;;;;;;;;;;5050863;28;20294;-53
2022/06/05 11:04:10;;;;;;;248.63;221.98;;;;;;;;;;5025826;28;20215;-53
2022/06/05 11:06:47;;;;;;;272.25;242.13;;;;;;;;;;5030398;28;20228;-53
2022/06/05 11:09:25;;;;;;;340.60;269.35;;;;;;;;;;5030079;28;20700;-54
2022/06/05 11:15:01;;;;;;;334.30;274.42;;;;;;;;;;5050477;28;20222;-51
2022/06/05 11:17:32;;;;;;;314.85;271.85;;;;;;;;;;5051977;28;20202;-53
2022/06/05 11:20:11;;;;;;;311.35;270.20;;;;;;;;;;5050533;28;20192;-53
2022/06/05 11:22:42;;;;;;;327.65;292.15;;;;;;;;;;5050153;28;20238;-53
2022/06/05 11:25:20;;;;;;;291.33;254.95;;;;;;;;;;5032502;28;20215;-53
2022/06/05 11:27:52;;;;;;;329.75;268.30;;;;;;;;;;5049709;28;20265;-53
2022/06/05 11:30:21;;;;;;;349.30;292.83;;;;;;;;;;5050326;28;20702;-53
2022/06/05 11:32:55;;;;;;;344.67;261.95;;;;;;;;;;5050336;28;20221;-53
2022/06/05 11:35:47;;;;;;;341.95;269.65;;;;;;;;;;5050970;28;20947;-54
2022/06/05 11:38:28;;;;;;;404.02;286.55;;;;;;;;;;5028663;28;20572;-53
2022/06/05 11:41:18;;;;;;;424.73;313.00;;;;;;;;;;5029088;28;20208;-54
2022/06/05 11:43:44;;;;;;;444.77;323.48;;;;;;;;;;5035716;28;20683;-53
2022/06/05 11:46:16;;;;;;;418.30;303.83;;;;;;;;;;5032721;28;20228;-52
2022/06/05 11:48:55;;;;;;;402.25;309.27;;;;;;;;;;5028095;28;20226;-52
2022/06/05 11:51:21;;;;;;;431.73;321.55;;;;;;;;;;5033709;28;20208;-53
2022/06/05 11:53:56;;;;;;;372.67;300.70;;;;;;;;;;5033049;28;20267;-53
2022/06/05 11:56:35;;;;;;;399.63;318.95;;;;;;;;;;5027758;28;20175;-54
2022/06/05 11:59:21;;;;;;;388.50;320.98;;;;;;;;;;5010293;28;20314;-53
2022/06/05 12:02:02;;;;;;;405.75;312.17;;;;;;;;;;5033593;28;20219;-53
2022/06/05 12:04:34;;;;;;;363.38;300.77;;;;;;;;;;5040581;28;20215;-52
2022/06/05 12:07:03;;;;;;;350.65;291.77;;;;;;;;;;5049719;28;20626;-53
2022/06/05 12:09:30;;;;;;;348.83;279.33;;;;;;;;;;5031667;28;20349;-53
2022/06/05 12:12:04;;;;;;;351.40;287.55;;;;;;;;;;5049744;28;20227;-53
2022/06/05 12:14:35;;;;;;;356.08;287.08;;;;;;;;;;5050094;28;20550;-53
2022/06/05 12:17:05;;;;;;;331.95;279.73;;;;;;;;;;5050042;28;20218;-53
2022/06/05 12:19:35;;;;;;;368.73;296.38;;;;;;;;;;5049408;28;20321;-53
2022/06/05 12:22:20;;;;;;;349.13;286.23;;;;;;;;;;5049566;28;20766;-53
2022/06/05 12:24:56;;;;;;;349.27;284.85;;;;;;;;;;5031723;28;20219;-53
2022/06/05 12:27:22;;;;;;;371.92;292.50;;;;;;;;;;5049205;28;20223;-53
2022/06/05 12:29:51;;;;;;;345.80;277.33;;;;;;;;;;5049688;28;20182;-52
2022/06/05 12:32:30;;;;;;;353.02;283.98;;;;;;;;;;5049710;28;20258;-53
2022/06/05 12:35:04;;;;;;;354.52;291.52;;;;;;;;;;5049783;28;20212;-53
2022/06/05 12:37:41;;;;;;;346.48;288.23;;;;;;;;;;5053084;28;20648;-53
2022/06/05 12:40:15;;;;;;;352.05;288.42;;;;;;;;;;5053296;28;20304;-53
2022/06/05 12:42:52;;;;;;;386.90;303.67;;;;;;;;;;5034461;28;20546;-55
2022/06/05 12:45:23;;;;;;;422.05;325.13;;;;;;;;;;5033426;28;20246;-56
2022/06/05 12:47:55;;;;;;;427.52;343.15;;;;;;;;;;5037834;28;20207;-55
2022/06/05 12:50:32;;;;;;;347.42;297.13;;;;;;;;;;5023949;28;20370;-55
2022/06/05 12:53:21;;;;;;;358.58;297.70;;;;;;;;;;5042669;28;20290;-55
2022/06/05 12:55:53;;;;;;;353.63;283.40;;;;;;;;;;5014207;28;20277;-55
2022/06/05 12:58:25;;;;;;;389.38;303.05;;;;;;;;;;5050923;28;20216;-55
2022/06/05 13:00:56;;;;;;;374.30;301.35;;;;;;;;;;5044978;28;20735;-55
2022/06/05 13:03:24;;;;;;;355.02;282.25;;;;;;;;;;5039092;28;20226;-55
2022/06/05 13:05:54;;;;;;;361.05;286.52;;;;;;;;;;5039647;28;20235;-55
2022/06/05 13:08:38;;;;;;;348.13;289.17;;;;;;;;;;5040127;28;20227;-55
2022/06/05 13:11:04;;;;;;;349.65;289.70;;;;;;;;;;5046773;28;20242;-55
2022/06/05 13:13:34;;;;;;;380.60;302.90;;;;;;;;;;5039647;28;20266;-55
2022/06/05 13:16:03;;;;;;;362.17;287.83;;;;;;;;;;5043727;28;20831;-55
2022/06/05 13:18:32;;;;;;;353.77;286.50;;;;;;;;;;5042313;28;20419;-55
2022/06/05 13:21:01;;;;;;;341.73;281.48;;;;;;;;;;5046875;28;20223;-56
2022/06/05 13:23:27;;;;;;;348.85;292.73;;;;;;;;;;5020057;28;20187;-56
2022/06/05 13:26:07;;;;;;;354.75;296.63;;;;;;;;;;5040806;28;20234;-56
2022/06/05 13:28:42;;;;;;;410.05;315.50;;;;;;;;;;5044177;28;20560;-55
2022/06/05 13:31:17;;;;;;;414.83;326.63;;;;;;;;;;5040752;28;20203;-55
2022/06/05 13:33:46;;;;;;;388.25;315.13;;;;;;;;;;5043311;28;20214;-56
2022/06/05 13:36:29;;;;;;;388.45;309.63;;;;;;;;;;5047187;28;20277;-56
2022/06/05 13:38:59;;;;;;;372.38;306.15;;;;;;;;;;5044361;28;20757;-56
2022/06/05 13:41:40;;;;;;;376.02;312.80;;;;;;;;;;5041220;28;20241;-56
2022/06/05 13:44:17;;;;;;;384.02;319.52;;;;;;;;;;5044523;28;20754;-56
2022/06/05 13:47:02;;;;;;;406.58;327.90;;;;;;;;;;5046631;28;20226;-56
2022/06/05 13:49:54;;;;;;;389.67;324.50;;;;;;;;;;5045611;28;20204;-55
2022/06/05 13:52:39;;;;;;;402.15;334.95;;;;;;;;;;5006270;28;20212;-56
2022/06/05 13:55:23;;;;;;;388.40;328.95;;;;;;;;;;5041301;28;20220;-56
2022/06/05 13:57:49;;;;;;;370.00;323.25;;;;;;;;;;5044962;28;20310;-55
2022/06/05 14:00:20;;;;;;;389.58;339.40;;;;;;;;;;5044837;28;20298;-56
2022/06/05 14:02:57;;;;;;;392.15;344.77;;;;;;;;;;5033844;28;20192;-56
2022/06/05 14:05:31;;;;;;;402.52;359.70;;;;;;;;;;5038442;28;20192;-56
2022/06/05 14:08:02;;;;;;;398.77;357.23;;;;;;;;;;5042050;28;20215;-56
2022/06/05 14:10:33;;;;;;;396.17;351.85;;;;;;;;;;5040084;28;20207;-56
2022/06/05 14:13:11;;;;;;;410.27;366.17;;;;;;;;;;5045710;28;20303;-56
2022/06/05 14:15:39;;;;;;;386.30;346.88;;;;;;;;;;5045043;28;20242;-56
2022/06/05 14:18:18;;;;;;;391.15;350.23;;;;;;;;;;5037426;28;20235;-56
2022/06/05 14:20:47;;;;;;;402.63;361.45;;;;;;;;;;5044770;28;20191;-56
2022/06/05 14:23:20;;;;;;;425.92;381.13;;;;;;;;;;5041169;28;20176;-56
2022/06/05 14:25:46;;;;;;;398.55;358.13;;;;;;;;;;5046454;28;20730;-56
2022/06/05 14:28:14;;;;;;;389.75;350.63;;;;;;;;;;5049679;28;20223;-56
2022/06/05 14:30:50;;;;;;;411.63;369.77;;;;;;;;;;5042770;28;20282;-56
2022/06/05 14:33:21;;;;;;;408.00;367.52;;;;;;;;;;5048715;28;20269;-56
2022/06/05 14:35:52;;;;;;;411.35;371.13;;;;;;;;;;5046399;28;20199;-56
2022/06/05 14:38:18;;;;;;;424.08;382.55;;;;;;;;;;5043471;28;20824;-56
2022/06/05 14:40:50;;;;;;;431.10;389.85;;;;;;;;;;5051580;28;20227;-56
2022/06/05 14:43:16;;;;;;;450.23;405.63;;;;;;;;;;5046854;28;20730;-56
2022/06/05 14:45:44;;;;;;;449.58;408.08;;;;;;;;;;5046999;28;20226;-56
2022/06/05 14:48:10;;;;;;;435.42;395.60;;;;;;;;;;5045062;28;20219;-56
2022/06/05 14:50:59;;;;;;;452.17;410.70;;;;;;;;;;5046539;28;20183;-56
2022/06/05 14:53:25;;;;;;;477.35;433.00;;;;;;;;;;5054378;28;20179;-56
2022/06/05 14:59:04;;;;;;;483.13;437.67;;;;;;;;;;5041267;28;20582;-56